Time;durP1;ratioP1;P1;durP2;ratioP2;P2;SDS_P1;SDS_P2;PMS_P1;PMS_P2;Temp;Humidity;BMP_temperature;BMP_pressure;BME280_temperature;BME280_humidity;BME280_pressure;Samples;Min_cycle;Max_cycle;Signal;HPM_P1;HPM_P2
2022/03/18 00:01:51;;;;;;;8.13;7.20;;;22.10;51.60;;;;;;4968855;28;20217;-89
2022/03/18 00:04:22;;;;;;;8.33;7.17;;;22.10;51.60;;;;;;4985968;28;20425;-89
2022/03/18 00:06:48;;;;;;;7.13;6.40;;;22.10;51.60;;;;;;4969544;28;20790;-89
2022/03/18 00:09:14;;;;;;;7.20;6.50;;;22.10;52.30;;;;;;4986653;28;20440;-89
2022/03/18 00:11:40;;;;;;;7.23;6.53;;;22.10;51.60;;;;;;4969450;28;20189;-89
2022/03/18 00:14:06;;;;;;;8.90;7.00;;;22.20;51.70;;;;;;4974967;28;20439;-90
2022/03/18 00:16:31;;;;;;;7.10;6.40;;;22.10;51.60;;;;;;4986413;28;20562;-90
2022/03/18 00:19:03;;;;;;;7.90;6.90;;;22.10;51.60;;;;;;4969263;28;20313;-90
2022/03/18 00:21:28;;;;;;;8.10;7.30;;;22.10;51.60;;;;;;4968891;28;20193;-91
2022/03/18 00:23:54;;;;;;;6.83;6.23;;;22.10;51.70;;;;;;4975006;28;20433;-90
2022/03/18 00:26:20;;;;;;;7.13;6.33;;;22.10;51.70;;;;;;4969252;28;20668;-90
2022/03/18 00:28:46;;;;;;;7.27;6.57;;;22.10;51.70;;;;;;4985595;28;20436;-90
2022/03/18 00:31:12;;;;;;;7.40;6.70;;;22.10;51.70;;;;;;4968638;28;20197;-90
2022/03/18 00:33:38;;;;;;;6.93;6.23;;;22.10;51.70;;;;;;4974352;28;20664;-90
2022/03/18 00:36:04;;;;;;;7.13;6.43;;;22.10;51.70;;;;;;4969340;28;20675;-90
2022/03/18 00:38:31;;;;;;;7.37;6.67;;;22.10;51.70;;;;;;4985980;28;20467;-90
2022/03/18 00:40:57;;;;;;;7.37;6.67;;;22.10;51.70;;;;;;4985411;28;20424;-90
2022/03/18 00:43:23;;;;;;;6.60;6.00;;;22.10;51.70;;;;;;4973205;28;20474;-89
2022/03/18 00:45:49;;;;;;;7.60;6.80;;;22.10;51.80;;;;;;4985948;28;20440;-90
2022/03/18 00:53:44;;;;;;;7.53;6.40;;;22.10;51.80;;;;;;4987764;28;20417;-91
2022/03/18 00:56:10;;;;;;;6.40;5.80;;;22.10;51.80;;;;;;4985903;28;20425;-90
2022/03/18 00:58:35;;;;;;;7.60;6.80;;;22.10;51.90;;;;;;4986049;28;20212;-90
2022/03/18 01:01:01;;;;;;;7.40;6.70;;;22.10;51.90;;;;;;4985950;28;20177;-91
2022/03/18 01:03:27;;;;;;;6.97;6.27;;;22.10;51.80;;;;;;4971751;28;20177;-90
2022/03/18 01:05:53;;;;;;;7.20;6.50;;;22.10;51.80;;;;;;4969194;28;20201;-90
2022/03/18 01:08:18;;;;;;;7.60;6.13;;;22.10;51.90;;;;;;4986901;28;20232;-90
2022/03/18 01:10:44;;;;;;;6.10;5.60;;;22.10;51.90;;;;;;4968832;28;20304;-90
2022/03/18 01:13:10;;;;;;;6.90;6.03;;;22.10;51.90;;;;;;4969878;28;20193;-90
2022/03/18 01:15:36;;;;;;;7.13;6.43;;;22.10;51.80;;;;;;4969344;28;20178;-90
2022/03/18 01:18:03;;;;;;;8.60;6.93;;;22.10;51.90;;;;;;4968326;28;20512;-90
2022/03/18 01:20:29;;;;;;;6.50;5.90;;;22.10;51.80;;;;;;4986170;28;20647;-90
2022/03/18 01:22:55;;;;;;;6.90;6.20;;;22.10;51.90;;;;;;4968832;28;20424;-90
2022/03/18 01:25:20;;;;;;;7.83;7.07;;;22.10;51.90;;;;;;4972851;28;20409;-90
2022/03/18 01:27:49;;;;;;;6.33;5.73;;;22.10;51.90;;;;;;4972763;28;20177;-90
2022/03/18 01:30:14;;;;;;;7.93;6.70;;;22.10;51.90;;;;;;4972333;28;20204;-90
2022/03/18 01:32:41;;;;;;;6.97;6.27;;;22.10;51.90;;;;;;4972470;28;20432;-90
2022/03/18 01:35:07;;;;;;;6.47;5.87;;;22.10;51.90;;;;;;4972200;28;20200;-90
2022/03/18 01:37:33;;;;;;;6.43;5.83;;;22.10;51.90;;;;;;4971692;28;20459;-90
2022/03/18 01:39:59;;;;;;;6.30;5.70;;;22.10;51.90;;;;;;4972220;28;20425;-89
2022/03/18 01:42:26;;;;;;;6.07;5.57;;;22.00;51.80;;;;;;4973043;28;20228;-89
2022/03/18 01:44:52;;;;;;;6.60;6.10;;;22.10;52.00;;;;;;4989334;28;20177;-89
2022/03/18 01:47:18;;;;;;;6.63;6.03;;;22.00;51.90;;;;;;4972678;28;20919;-89
2022/03/18 01:49:44;;;;;;;6.13;5.63;;;22.00;51.90;;;;;;4971948;28;20182;-89
2022/03/18 01:52:11;;;;;;;7.00;6.30;;;22.10;52.00;;;;;;4989459;28;20888;-90
2022/03/18 01:57:23;;;;;;;6.43;5.83;;;22.00;51.90;;;;;;4989198;28;20515;-89
2022/03/18 01:59:51;;;;;;;6.73;5.83;;;22.00;51.90;;;;;;4972416;28;20859;-89
2022/03/18 02:02:18;;;;;;;5.67;5.17;;;22.00;51.90;;;;;;4971617;28;20432;-89
2022/03/18 02:04:44;;;;;;;6.80;6.20;;;22.00;52.00;;;;;;4988545;28;20919;-89
2022/03/18 02:07:11;;;;;;;6.43;5.83;;;22.00;52.00;;;;;;4971345;28;20522;-89
2022/03/18 02:09:38;;;;;;;6.40;5.80;;;22.00;52.00;;;;;;4971583;28;20452;-89
2022/03/18 02:12:05;;;;;;;6.53;6.03;;;22.00;52.00;;;;;;4970707;28;20428;-89
2022/03/18 02:14:41;;;;;;;6.63;5.93;;;22.00;52.00;;;;;;4979329;28;20433;-89
2022/03/18 02:17:09;;;;;;;6.07;5.43;;;22.00;52.10;;;;;;4988190;28;20424;-89
2022/03/18 02:19:36;;;;;;;6.07;5.50;;;22.00;52.00;;;;;;4989069;28;20424;-88
2022/03/18 02:22:08;;;;;;;6.37;5.70;;;22.00;52.00;;;;;;4970433;28;20429;-88
2022/03/18 02:24:37;;;;;;;5.73;5.13;;;22.00;52.00;;;;;;4988219;28;20429;-89
2022/03/18 02:27:03;;;;;;;6.07;5.57;;;22.00;52.00;;;;;;4987643;28;20424;-89
2022/03/18 02:29:29;;;;;;;6.43;5.80;;;22.00;52.00;;;;;;4988137;28;20528;-91
2022/03/18 02:31:54;;;;;;;6.47;5.87;;;22.00;52.00;;;;;;4971594;28;20421;-91
2022/03/18 02:34:22;;;;;;;5.80;5.30;;;22.00;52.10;;;;;;4971243;28;20190;-91
2022/03/18 02:36:49;;;;;;;5.83;5.33;;;22.00;52.10;;;;;;4971470;28;20209;-88
2022/03/18 02:39:15;;;;;;;5.60;5.10;;;22.00;52.10;;;;;;4988360;28;20468;-91
2022/03/18 02:41:41;;;;;;;6.33;5.80;;;22.00;52.10;;;;;;4971465;28;20425;-90
2022/03/18 02:44:07;;;;;;;6.10;5.50;;;22.00;52.00;;;;;;4987753;28;20169;-90
2022/03/18 02:46:34;;;;;;;6.20;5.67;;;22.00;52.10;;;;;;4970714;28;20410;-90
2022/03/18 02:49:01;;;;;;;5.57;5.07;;;22.00;52.10;;;;;;4970842;28;20492;-90
2022/03/18 02:51:27;;;;;;;6.20;5.57;;;22.00;52.10;;;;;;4989021;28;20416;-90
2022/03/18 02:53:53;;;;;;;5.93;5.30;;;22.00;52.10;;;;;;4970846;28;20421;-90
2022/03/18 02:56:20;;;;;;;6.70;6.10;;;22.00;52.10;;;;;;4988572;28;20919;-91
2022/03/18 02:58:45;;;;;;;6.20;5.60;;;22.00;52.10;;;;;;4988408;28;20445;-91
2022/03/18 03:01:11;;;;;;;5.97;5.37;;;22.00;52.10;;;;;;4971068;28;20429;-90
2022/03/18 03:09:43;;;;;;;6.30;5.70;;;22.00;52.70;;;;;;4988188;28;20425;-91
2022/03/18 03:12:09;;;;;;;5.73;5.23;;;21.90;52.10;;;;;;4970902;28;20417;-91
2022/03/18 03:14:36;;;;;;;8.13;6.27;;;21.90;52.10;;;;;;4970209;28;20174;-90
2022/03/18 03:17:03;;;;;;;6.30;5.70;;;21.90;52.10;;;;;;4969880;28;20417;-90
2022/03/18 03:19:31;;;;;;;6.13;5.53;;;21.90;52.10;;;;;;4986946;28;20417;-90
2022/03/18 03:21:57;;;;;;;5.80;5.27;;;21.90;52.10;;;;;;4970610;28;20493;-90
2022/03/18 03:24:22;;;;;;;5.67;5.20;;;21.90;52.10;;;;;;4970322;28;20417;-90
2022/03/18 03:26:48;;;;;;;6.03;5.50;;;21.90;52.10;;;;;;4970853;28;20182;-91
2022/03/18 03:29:14;;;;;;;5.90;5.30;;;21.90;52.20;;;;;;4967046;28;20206;-90
2022/03/18 03:31:48;;;;;;;5.63;5.00;;;21.90;52.20;;;;;;4950475;29;20197;-90
2022/03/18 03:34:14;;;;;;;5.10;4.60;;;21.90;52.20;;;;;;4968237;29;20170;-90
2022/03/18 03:36:40;;;;;;;4.80;4.23;;;21.90;52.20;;;;;;4968079;29;20429;-90
2022/03/18 03:39:06;;;;;;;5.43;4.80;;;21.90;52.20;;;;;;4950805;29;20462;-90
2022/03/18 03:41:35;;;;;;;6.20;5.60;;;21.90;52.20;;;;;;4951401;29;20176;-90
2022/03/18 03:44:01;;;;;;;6.70;5.40;;;21.90;52.20;;;;;;4950854;29;20213;-90
2022/03/18 03:46:26;;;;;;;5.70;5.20;;;21.90;52.20;;;;;;4965359;28;20410;-90
2022/03/18 03:48:52;;;;;;;5.97;5.40;;;21.90;52.20;;;;;;4967606;29;20174;-91
2022/03/18 03:54:40;;;;;;;5.47;4.83;;;21.90;52.20;;;;;;4968358;29;20232;-90
2022/03/18 03:57:07;;;;;;;5.33;4.80;;;21.90;52.20;;;;;;4951074;29;20422;-90
2022/03/18 03:59:33;;;;;;;7.10;5.00;;;21.90;52.30;;;;;;4950855;29;20185;-90
2022/03/18 04:01:59;;;;;;;5.20;4.70;;;21.90;52.30;;;;;;4968307;29;20414;-90
2022/03/18 04:04:26;;;;;;;6.00;5.40;;;21.90;52.30;;;;;;4968180;29;20979;-90
2022/03/18 04:06:52;;;;;;;4.70;4.30;;;21.90;52.30;;;;;;4961004;28;20441;-90
2022/03/18 04:09:18;;;;;;;5.27;4.77;;;21.90;52.30;;;;;;4962890;28;21453;-90
2022/03/18 04:11:43;;;;;;;5.40;4.90;;;21.90;52.30;;;;;;4964556;28;20429;-91
2022/03/18 04:14:09;;;;;;;5.40;4.93;;;21.90;52.30;;;;;;4978608;28;20179;-90
2022/03/18 04:16:35;;;;;;;4.80;4.40;;;21.90;52.30;;;;;;4963268;28;20239;-89
2022/03/18 04:19:03;;;;;;;4.90;4.50;;;21.90;52.30;;;;;;4980369;28;20206;-90
2022/03/18 04:21:29;;;;;;;5.00;4.37;;;21.90;52.30;;;;;;4967563;28;20484;-90
2022/03/18 04:24:32;;;;;;;5.10;4.60;;;21.90;52.30;;;;;;4963131;28;20448;-89
2022/03/18 04:26:58;;;;;;;4.90;4.50;;;21.90;52.30;;;;;;4979896;28;20770;-90
2022/03/18 04:29:24;;;;;;;5.10;4.60;;;21.90;52.30;;;;;;4961852;28;20460;-89
2022/03/18 04:31:51;;;;;;;5.47;4.97;;;21.90;52.30;;;;;;4962839;28;20477;-90
2022/03/18 04:34:16;;;;;;;4.80;4.40;;;21.90;52.30;;;;;;4961693;28;20418;-90
2022/03/18 04:36:42;;;;;;;4.97;4.47;;;21.90;52.40;;;;;;4962366;28;20761;-89
2022/03/18 04:39:09;;;;;;;5.00;4.60;;;21.90;52.40;;;;;;4959637;28;20195;-90
2022/03/18 04:41:35;;;;;;;5.40;4.90;;;21.90;52.40;;;;;;4967847;28;20488;-90
2022/03/18 04:44:04;;;;;;;5.20;4.57;;;21.90;52.40;;;;;;4959383;29;20426;-90
2022/03/18 04:46:31;;;;;;;4.70;4.30;;;21.90;52.40;;;;;;4978405;28;20253;-90
2022/03/18 04:48:58;;;;;;;4.63;4.23;;;21.90;52.40;;;;;;4975116;28;20428;-90
2022/03/18 04:51:25;;;;;;;4.70;4.30;;;21.90;52.40;;;;;;4980088;28;20429;-90
2022/03/18 04:53:51;;;;;;;5.30;4.63;;;21.90;52.40;;;;;;4959480;28;20428;-90
2022/03/18 04:59:01;;;;;;;4.70;4.30;;;21.80;52.30;;;;;;4978699;28;20974;-90
2022/03/18 05:01:26;;;;;;;5.50;4.23;;;21.90;52.40;;;;;;4966828;28;20437;-90
2022/03/18 05:03:52;;;;;;;4.93;4.00;;;21.80;52.30;;;;;;4985112;28;20174;-89
2022/03/18 05:06:18;;;;;;;5.33;4.83;;;21.80;52.30;;;;;;4963743;28;20181;-89
2022/03/18 05:08:45;;;;;;;5.53;5.03;;;21.80;52.30;;;;;;4968540;28;20457;-89
2022/03/18 05:11:12;;;;;;;4.33;3.93;;;21.80;52.30;;;;;;4989718;28;20427;-90
2022/03/18 05:13:38;;;;;;;4.80;4.30;;;21.80;52.30;;;;;;4972000;28;20444;-89
2022/03/18 05:16:05;;;;;;;5.23;4.83;;;21.80;52.40;;;;;;4972586;28;20425;-89
2022/03/18 05:18:33;;;;;;;4.80;4.30;;;21.80;52.30;;;;;;4972600;28;20461;-89
2022/03/18 05:20:58;;;;;;;4.90;4.40;;;21.80;51.90;;;;;;4989958;28;20449;-90
2022/03/18 05:23:55;;;;;;;5.33;4.83;;;21.80;52.40;;;;;;4988189;28;20959;-88
2022/03/18 05:26:21;;;;;;;5.00;4.50;;;21.80;52.40;;;;;;4973093;28;20702;-89
2022/03/18 05:28:47;;;;;;;4.50;4.10;;;21.80;52.40;;;;;;4990615;28;20420;-89
2022/03/18 05:31:13;;;;;;;4.53;4.13;;;21.80;52.40;;;;;;4975491;28;20267;-89
2022/03/18 05:33:39;;;;;;;4.80;4.30;;;21.80;52.40;;;;;;4996152;28;20256;-89
2022/03/18 05:36:05;;;;;;;4.50;4.10;;;21.80;52.40;;;;;;4981899;28;20432;-88
2022/03/18 05:38:32;;;;;;;4.27;3.87;;;21.80;52.40;;;;;;4988133;28;20465;-88
2022/03/18 05:41:00;;;;;;;4.33;3.93;;;21.80;52.40;;;;;;4972365;28;20420;-89
2022/03/18 05:43:28;;;;;;;4.90;4.50;;;21.80;52.40;;;;;;4972536;28;20516;-88
2022/03/18 05:45:54;;;;;;;4.50;4.10;;;21.80;52.50;;;;;;4989754;28;20425;-88
2022/03/18 05:48:20;;;;;;;4.73;4.20;;;21.80;52.50;;;;;;4989699;28;20427;-88
2022/03/18 05:50:46;;;;;;;5.03;4.63;;;21.80;52.50;;;;;;4989378;28;20210;-89
2022/03/18 05:53:12;;;;;;;5.13;4.63;;;21.80;52.50;;;;;;4975010;28;20178;-89
2022/03/18 05:58:24;;;;;;;6.53;4.13;;;21.80;52.50;;;;;;4985371;28;20451;-89
2022/03/18 06:00:49;;;;;;;4.20;3.80;;;21.80;52.50;;;;;;4972105;28;20429;-88
2022/03/18 06:03:15;;;;;;;4.50;4.10;;;21.80;52.60;;;;;;4972234;28;20245;-89
2022/03/18 06:05:42;;;;;;;4.47;4.07;;;21.80;53.30;;;;;;4972210;28;20205;-89
2022/03/18 06:13:39;;;;;;;4.77;3.53;;;21.80;52.50;;;;;;4989709;28;20416;-89
2022/03/18 06:16:05;;;;;;;4.80;4.03;;;21.80;52.60;;;;;;4988960;28;20417;-90
2022/03/18 06:18:31;;;;;;;4.27;3.87;;;21.80;52.60;;;;;;4971349;28;20484;-90
2022/03/18 06:20:56;;;;;;;4.30;3.73;;;21.80;52.60;;;;;;4989598;28;20429;-89
2022/03/18 06:23:39;;;;;;;4.17;3.80;;;21.80;52.60;;;;;;4971868;28;20214;-89
2022/03/18 06:26:05;;;;;;;3.90;3.50;;;21.80;52.50;;;;;;4971990;28;20605;-89
2022/03/18 06:28:32;;;;;;;5.13;3.73;;;21.80;52.50;;;;;;4990049;28;20409;-90
2022/03/18 06:30:57;;;;;;;3.77;3.47;;;21.90;52.70;;;;;;4972531;28;20469;-89
2022/03/18 06:33:23;;;;;;;4.30;3.90;;;21.90;52.60;;;;;;4988906;28;20413;-90
2022/03/18 06:35:49;;;;;;;3.57;3.27;;;21.90;52.60;;;;;;4989045;28;20177;-90
2022/03/18 06:38:15;;;;;;;4.53;3.80;;;21.90;52.60;;;;;;4971324;28;20201;-89
2022/03/18 06:40:41;;;;;;;4.13;3.73;;;21.90;52.60;;;;;;4972756;28;20174;-89
2022/03/18 06:43:09;;;;;;;5.40;3.80;;;21.90;52.70;;;;;;4987324;28;20546;-89
2022/03/18 06:45:35;;;;;;;7.90;4.03;;;21.90;52.60;;;;;;4971482;28;20424;-88
2022/03/18 06:48:04;;;;;;;3.83;3.50;;;21.90;52.60;;;;;;4988919;28;20417;-89
2022/03/18 06:50:36;;;;;;;4.87;3.50;;;21.90;52.60;;;;;;4988533;28;20182;-89
2022/03/18 06:53:01;;;;;;;4.00;3.60;;;21.90;52.60;;;;;;4971266;28;20417;-88
2022/03/18 06:58:49;;;;;;;4.40;3.77;;;22.00;52.70;;;;;;4988897;28;20265;-89
2022/03/18 07:01:15;;;;;;;3.90;3.50;;;21.90;52.60;;;;;;4987219;28;20457;-89
2022/03/18 07:03:41;;;;;;;4.10;3.70;;;21.90;52.70;;;;;;4971660;28;20418;-90
2022/03/18 07:06:06;;;;;;;3.73;3.43;;;21.90;52.70;;;;;;4988876;28;20169;-89
2022/03/18 07:08:39;;;;;;;5.57;3.97;;;22.00;52.70;;;;;;4971646;28;20189;-89
2022/03/18 07:11:05;;;;;;;3.93;2.97;;;22.00;52.70;;;;;;4989427;28;20174;-89
2022/03/18 07:13:31;;;;;;;5.13;3.97;;;22.00;52.70;;;;;;4988962;28;20428;-89
2022/03/18 07:17:54;;;;;;;4.90;4.07;;;22.00;52.70;;;;;;4988780;28;20424;-87
2022/03/18 07:18:42;;;;;;;4.17;3.70;;;22.00;52.70;;;;;;4988201;28;20479;-89
2022/03/18 07:21:08;;;;;;;4.33;3.93;;;22.00;52.70;;;;;;4971274;28;20432;-89
2022/03/18 07:23:34;;;;;;;3.80;3.50;;;22.00;52.70;;;;;;4971239;28;20189;-89
2022/03/18 07:25:59;;;;;;;4.13;3.53;;;22.00;52.70;;;;;;4989007;28;20417;-89
2022/03/18 07:28:25;;;;;;;4.10;3.33;;;22.00;52.70;;;;;;4988539;28;20249;-89
2022/03/18 07:34:13;;;;;;;4.77;3.40;;;22.00;52.70;;;;;;4988681;28;20559;-89
2022/03/18 07:36:39;;;;;;;3.63;3.30;;;22.00;52.70;;;;;;4970662;28;20497;-88
2022/03/18 07:39:07;;;;;;;4.40;3.63;;;22.00;52.70;;;;;;4970306;28;20263;-88
2022/03/18 07:41:34;;;;;;;3.57;2.90;;;22.00;52.70;;;;;;4970869;28;20179;-88
2022/03/18 07:44:03;;;;;;;4.47;3.40;;;22.00;52.70;;;;;;4971026;28;20786;-88
2022/03/18 07:46:29;;;;;;;4.10;3.23;;;22.00;52.70;;;;;;4988058;28;20424;-88
2022/03/18 07:48:54;;;;;;;4.53;3.90;;;22.00;52.70;;;;;;4987859;28;20967;-88
2022/03/18 07:51:20;;;;;;;3.20;2.90;;;22.00;52.70;;;;;;4970594;28;20201;-88
2022/03/18 07:53:46;;;;;;;3.50;3.20;;;22.00;52.70;;;;;;4987608;28;20176;-90
2022/03/18 07:56:11;;;;;;;4.07;3.30;;;22.00;52.70;;;;;;4971007;28;20182;-89
2022/03/18 07:58:37;;;;;;;3.83;3.53;;;22.10;52.80;;;;;;4970500;28;20209;-90
2022/03/18 08:01:07;;;;;;;3.90;3.27;;;22.00;52.70;;;;;;4970751;28;20170;-90
2022/03/18 08:03:33;;;;;;;3.63;3.33;;;22.10;52.80;;;;;;4971097;28;20636;-90
2022/03/18 08:05:58;;;;;;;3.77;3.40;;;22.00;52.70;;;;;;4987771;28;20428;-90
2022/03/18 08:08:24;;;;;;;3.53;3.20;;;22.10;52.80;;;;;;4987686;28;20425;-89
2022/03/18 08:10:51;;;;;;;6.23;3.77;;;22.10;52.80;;;;;;4970218;28;20189;-90
2022/03/18 08:13:17;;;;;;;3.80;3.43;;;22.10;52.80;;;;;;4969547;28;20185;-90
2022/03/18 08:15:44;;;;;;;6.40;3.80;;;22.10;52.80;;;;;;4987718;28;20420;-90
2022/03/18 08:18:10;;;;;;;3.17;2.90;;;22.10;52.80;;;;;;4970567;28;20461;-90
2022/03/18 08:20:43;;;;;;;5.20;3.57;;;22.10;52.80;;;;;;4970715;28;20437;-91
2022/03/18 08:23:11;;;;;;;3.87;3.47;;;22.10;52.80;;;;;;4969586;28;20421;-90
2022/03/18 08:25:37;;;;;;;3.80;3.30;;;22.00;52.80;;;;;;4970182;28;20417;-90
2022/03/18 08:28:05;;;;;;;3.60;3.10;;;22.10;52.90;;;;;;4969794;28;20425;-90
2022/03/18 08:30:31;;;;;;;4.17;3.77;;;22.10;52.80;;;;;;4986537;28;20409;-90
2022/03/18 08:32:57;;;;;;;3.73;3.33;;;22.10;52.90;;;;;;4969497;28;20511;-90
2022/03/18 08:35:23;;;;;;;3.40;3.10;;;22.10;52.90;;;;;;4986786;28;20444;-90
2022/03/18 08:37:58;;;;;;;3.47;3.17;;;22.10;52.80;;;;;;4969726;28;20208;-90
2022/03/18 08:40:30;;;;;;;3.70;3.40;;;22.10;52.80;;;;;;4986789;28;20403;-90
2022/03/18 08:42:57;;;;;;;3.23;2.80;;;22.10;52.80;;;;;;4969763;28;20427;-90
2022/03/18 08:45:23;;;;;;;3.77;2.90;;;22.10;52.80;;;;;;4969525;28;20445;-90
2022/03/18 08:47:49;;;;;;;3.13;2.80;;;22.10;52.80;;;;;;4969769;28;20473;-90
2022/03/18 08:50:15;;;;;;;3.73;3.33;;;22.10;52.90;;;;;;4981602;28;20426;-89
2022/03/18 08:52:42;;;;;;;3.60;3.30;;;22.10;52.80;;;;;;4950883;29;20208;-90
2022/03/18 08:55:09;;;;;;;3.73;2.83;;;22.10;52.80;;;;;;4968674;28;20447;-89
2022/03/18 08:57:37;;;;;;;3.47;3.17;;;22.10;52.80;;;;;;4986954;28;20460;-90
2022/03/18 09:00:09;;;;;;;5.50;3.13;;;22.10;52.80;;;;;;4969693;28;20865;-90
2022/03/18 09:02:39;;;;;;;3.90;3.23;;;22.10;52.80;;;;;;4970010;28;20428;-89
2022/03/18 09:05:07;;;;;;;3.77;3.27;;;22.10;52.80;;;;;;4966009;29;20497;-89
2022/03/18 09:07:33;;;;;;;3.00;2.73;;;22.10;52.80;;;;;;4950623;29;20417;-90
2022/03/18 09:09:59;;;;;;;2.73;2.53;;;22.10;52.80;;;;;;4976372;28;20475;-90
2022/03/18 09:12:25;;;;;;;2.80;2.60;;;22.10;52.80;;;;;;4985540;28;20923;-89
2022/03/18 09:14:52;;;;;;;3.40;3.10;;;22.10;52.80;;;;;;4967277;29;20450;-90
2022/03/18 09:17:19;;;;;;;3.50;3.20;;;22.10;52.80;;;;;;4980272;28;20424;-90
2022/03/18 09:19:45;;;;;;;3.93;3.53;;;22.10;52.80;;;;;;4980565;28;20417;-89
2022/03/18 09:22:13;;;;;;;2.77;2.57;;;22.10;52.80;;;;;;4965028;28;20440;-90
2022/03/18 09:24:38;;;;;;;3.30;3.00;;;22.10;52.80;;;;;;4968442;28;20181;-90
2022/03/18 09:27:05;;;;;;;3.13;2.83;;;22.10;52.80;;;;;;4967619;28;20429;-90
2022/03/18 09:29:31;;;;;;;2.57;2.37;;;22.10;52.80;;;;;;4968707;28;20429;-90
2022/03/18 09:31:57;;;;;;;3.17;2.80;;;22.10;52.80;;;;;;4967713;28;20433;-90
2022/03/18 09:34:24;;;;;;;3.40;3.10;;;22.10;52.80;;;;;;4984830;28;20447;-89
2022/03/18 09:36:55;;;;;;;4.40;3.00;;;22.10;52.80;;;;;;4968073;28;20209;-90
2022/03/18 09:39:22;;;;;;;4.13;3.20;;;22.10;52.80;;;;;;4963325;28;20978;-90
2022/03/18 09:41:48;;;;;;;3.00;2.70;;;22.10;52.80;;;;;;4968258;28;20480;-89
2022/03/18 09:44:14;;;;;;;3.17;2.67;;;22.10;52.80;;;;;;4982538;28;20457;-89
2022/03/18 09:46:45;;;;;;;4.03;2.80;;;22.10;52.80;;;;;;4969153;28;20195;-90
2022/03/18 09:49:14;;;;;;;3.10;2.77;;;22.10;52.80;;;;;;4985902;28;20193;-89
2022/03/18 09:51:42;;;;;;;4.20;3.10;;;22.10;52.80;;;;;;4965517;28;20459;-90
2022/03/18 09:54:10;;;;;;;3.00;2.70;;;22.10;52.80;;;;;;4980645;28;20449;-90
2022/03/18 09:56:38;;;;;;;2.83;2.63;;;22.10;52.80;;;;;;4986117;28;20428;-90
2022/03/18 09:59:04;;;;;;;3.10;2.80;;;22.10;52.80;;;;;;4962338;28;20876;-88
2022/03/18 10:01:30;;;;;;;3.10;2.80;;;22.10;52.80;;;;;;4983065;28;20480;-89
2022/03/18 10:04:07;;;;;;;2.77;2.47;;;22.10;52.80;;;;;;4979461;28;20197;-89
2022/03/18 10:06:34;;;;;;;2.43;2.23;;;22.10;52.80;;;;;;4974248;28;20188;-89
2022/03/18 10:09:26;;;;;;;3.27;2.97;;;22.10;52.80;;;;;;4970124;28;20417;-89
2022/03/18 10:11:52;;;;;;;2.90;2.70;;;22.10;52.80;;;;;;4970264;28;20523;-89
2022/03/18 10:14:20;;;;;;;3.20;2.67;;;22.10;52.80;;;;;;4987016;28;20492;-87
2022/03/18 10:16:48;;;;;;;3.20;2.90;;;22.10;52.80;;;;;;4970450;28;20434;-89
2022/03/18 10:19:15;;;;;;;4.27;3.17;;;22.10;52.80;;;;;;4988451;28;20464;-89
2022/03/18 10:21:55;;;;;;;2.70;2.33;;;22.10;52.80;;;;;;4970845;28;20429;-89
2022/03/18 10:24:28;;;;;;;3.10;2.80;;;22.10;52.80;;;;;;4965153;28;20492;-89
2022/03/18 10:27:13;;;;;;;3.60;2.70;;;22.10;52.80;;;;;;4970581;28;20417;-89
2022/03/18 10:29:44;;;;;;;3.37;3.07;;;22.10;52.80;;;;;;4971412;28;20967;-89
2022/03/18 10:32:12;;;;;;;2.90;2.70;;;22.10;52.80;;;;;;4988821;28;20822;-88
2022/03/18 10:37:25;;;;;;;2.70;2.40;;;22.10;52.80;;;;;;4982383;28;20479;-90
2022/03/18 10:40:12;;;;;;;2.57;2.37;;;22.10;52.80;;;;;;4970818;28;20428;-89
2022/03/18 10:42:40;;;;;;;2.67;2.47;;;22.10;52.80;;;;;;4968369;29;20430;-89
2022/03/18 10:45:08;;;;;;;3.60;2.70;;;22.10;52.80;;;;;;4952512;29;20423;-88
2022/03/18 10:47:35;;;;;;;2.97;2.67;;;22.10;52.80;;;;;;4952049;29;20421;-89
2022/03/18 10:50:16;;;;;;;2.87;2.67;;;22.20;52.90;;;;;;4968861;29;20485;-90
2022/03/18 10:52:48;;;;;;;2.57;2.37;;;22.20;52.90;;;;;;4952192;29;20436;-90
2022/03/18 10:55:19;;;;;;;4.43;2.73;;;22.20;52.90;;;;;;4952014;29;20430;-89
2022/03/18 10:58:00;;;;;;;3.60;2.37;;;22.20;52.90;;;;;;4951915;29;20474;-90
2022/03/18 11:00:31;;;;;;;4.63;2.27;;;22.20;52.90;;;;;;4969300;29;20402;-89
2022/03/18 11:03:06;;;;;;;2.83;2.57;;;22.20;52.90;;;;;;4968235;29;20418;-90
2022/03/18 11:05:40;;;;;;;2.80;2.53;;;22.20;52.90;;;;;;4967444;28;20492;-89
2022/03/18 11:08:09;;;;;;;2.50;2.30;;;22.20;52.90;;;;;;4968732;29;20406;-90
2022/03/18 11:13:28;;;;;;;3.00;2.70;;;22.20;52.90;;;;;;4969484;29;20761;-90
2022/03/18 11:15:55;;;;;;;2.50;2.30;;;22.20;52.90;;;;;;4952627;29;20457;-88
2022/03/18 11:18:21;;;;;;;3.20;2.37;;;22.20;52.90;;;;;;4951864;29;20465;-88
2022/03/18 11:20:50;;;;;;;2.97;2.57;;;22.20;52.90;;;;;;4968119;29;20421;-88
2022/03/18 11:23:23;;;;;;;2.70;2.50;;;22.20;52.90;;;;;;4968084;29;20432;-90
2022/03/18 11:25:55;;;;;;;2.13;1.93;;;22.20;52.90;;;;;;4967120;28;20418;-90
2022/03/18 11:28:31;;;;;;;3.13;2.83;;;22.20;52.90;;;;;;4969199;29;20417;-89
2022/03/18 11:31:08;;;;;;;2.60;2.40;;;22.20;52.90;;;;;;4968755;29;20425;-89
2022/03/18 11:33:38;;;;;;;2.37;2.17;;;22.20;52.90;;;;;;4951329;29;20452;-88
2022/03/18 11:36:09;;;;;;;2.40;2.20;;;22.20;52.90;;;;;;4951895;29;20421;-89
2022/03/18 11:38:48;;;;;;;3.60;3.10;;;22.20;52.90;;;;;;4951418;29;20516;-89
2022/03/18 11:41:16;;;;;;;3.53;2.40;;;22.20;52.90;;;;;;4951080;29;20983;-88
2022/03/18 11:43:42;;;;;;;3.30;2.80;;;22.20;52.90;;;;;;4950807;29;20452;-89
2022/03/18 11:49:33;;;;;;;3.03;2.73;;;22.20;52.90;;;;;;4969034;29;20177;-88
2022/03/18 11:52:24;;;;;;;3.83;3.03;;;22.20;52.90;;;;;;4967779;29;20770;-89
2022/03/18 11:54:58;;;;;;;2.83;2.63;;;22.20;52.90;;;;;;4968384;29;20824;-89
2022/03/18 11:57:36;;;;;;;3.40;3.10;;;22.20;52.90;;;;;;4968811;29;20424;-89
2022/03/18 12:00:07;;;;;;;4.67;3.10;;;22.20;52.90;;;;;;4951056;29;20414;-89
2022/03/18 12:02:34;;;;;;;3.10;2.73;;;22.20;52.90;;;;;;4968465;29;20403;-88
2022/03/18 12:05:00;;;;;;;3.03;2.73;;;22.20;52.90;;;;;;4952100;29;20569;-89
2022/03/18 12:07:45;;;;;;;4.50;3.37;;;22.20;52.90;;;;;;4966713;28;20521;-88
2022/03/18 12:10:13;;;;;;;6.23;4.20;;;22.20;52.90;;;;;;4952720;29;20416;-88
2022/03/18 12:12:48;;;;;;;8.40;4.60;;;22.20;52.90;;;;;;4952073;29;20422;-88
2022/03/18 12:15:19;;;;;;;6.20;4.47;;;22.20;52.90;;;;;;4952956;29;20413;-88
2022/03/18 12:17:56;;;;;;;8.73;6.60;;;22.20;52.90;;;;;;4952026;29;20454;-87
2022/03/18 12:20:28;;;;;;;9.90;7.00;;;22.20;53.00;;;;;;4969163;29;20996;-89
2022/03/18 12:22:55;;;;;;;11.03;6.50;;;22.20;53.00;;;;;;4951620;29;20504;-89
2022/03/18 12:25:22;;;;;;;7.00;6.07;;;22.30;53.10;;;;;;4952337;29;20429;-89
2022/03/18 12:27:53;;;;;;;9.93;6.80;;;22.20;53.00;;;;;;4969375;29;20442;-89
2022/03/18 12:30:28;;;;;;;8.47;5.83;;;22.30;53.10;;;;;;4968609;29;20774;-89
2022/03/18 12:33:02;;;;;;;10.93;6.10;;;22.30;53.10;;;;;;4969537;29;20544;-88
2022/03/18 12:35:33;;;;;;;10.53;6.57;;;22.30;53.20;;;;;;4952209;29;20449;-88
2022/03/18 12:38:09;;;;;;;10.13;6.60;;;22.20;53.10;;;;;;4968747;29;20473;-88
2022/03/18 12:40:40;;;;;;;11.60;6.77;;;22.30;53.20;;;;;;4968440;29;20406;-88
2022/03/18 12:43:08;;;;;;;14.10;7.23;;;22.20;53.10;;;;;;4952004;29;20422;-89
2022/03/18 12:45:44;;;;;;;9.97;6.90;;;22.30;53.20;;;;;;4952906;29;20422;-88
2022/03/18 12:48:18;;;;;;;11.03;7.50;;;22.30;53.20;;;;;;4969448;29;20409;-88
2022/03/18 12:50:47;;;;;;;8.70;6.03;;;22.30;53.20;;;;;;4968381;29;20438;-88
2022/03/18 12:53:18;;;;;;;12.47;7.33;;;22.30;53.20;;;;;;4950567;29;20425;-88
2022/03/18 12:55:47;;;;;;;12.90;6.90;;;22.20;53.10;;;;;;4968715;29;20426;-88
2022/03/18 12:58:24;;;;;;;12.63;7.33;;;22.30;53.20;;;;;;4951336;29;20509;-88
2022/03/18 13:00:54;;;;;;;8.67;6.40;;;22.30;53.80;;;;;;4951794;29;20414;-89
2022/03/18 13:03:30;;;;;;;11.40;7.83;;;22.30;53.30;;;;;;4968356;29;20414;-88
2022/03/18 13:06:20;;;;;;;16.03;7.47;;;22.30;53.30;;;;;;4967061;29;20461;-89
2022/03/18 13:08:53;;;;;;;12.20;8.07;;;22.30;53.30;;;;;;4951507;29;20425;-89
2022/03/18 13:11:20;;;;;;;8.80;6.13;;;22.30;53.30;;;;;;4950723;29;20421;-89
2022/03/18 13:13:51;;;;;;;10.13;7.77;;;22.20;53.30;;;;;;4967532;29;20434;-89
2022/03/18 13:16:23;;;;;;;10.07;6.60;;;22.30;53.40;;;;;;4968721;28;20422;-89
2022/03/18 13:18:58;;;;;;;12.33;7.20;;;22.30;53.40;;;;;;4969543;28;20454;-89
2022/03/18 13:21:24;;;;;;;7.80;6.27;;;22.30;53.40;;;;;;4971686;29;20453;-89
2022/03/18 13:23:55;;;;;;;11.97;8.80;;;22.30;53.40;;;;;;4954795;29;20430;-89
2022/03/18 13:26:21;;;;;;;11.20;7.53;;;22.30;53.40;;;;;;4969972;29;20181;-89
2022/03/18 13:28:52;;;;;;;11.60;6.53;;;22.30;53.40;;;;;;4970322;29;20445;-90
2022/03/18 13:34:02;;;;;;;11.30;7.03;;;22.30;53.30;;;;;;4970964;29;20456;-87
2022/03/18 13:36:29;;;;;;;12.33;7.80;;;22.30;53.40;;;;;;4971407;29;20485;-89
2022/03/18 13:38:58;;;;;;;10.50;7.47;;;22.30;53.30;;;;;;4953539;29;20233;-90